Terminal Aerodrome Forecast
Issued by NWS

Home | Current Version | Previous Version | Text Only | Print | Product List | Glossary On
Versions: 1 2 3 4 5 6 7 8 9 10 11 12 13 14 15 16 17 18
000
FTUS41 KBGM 230800 AAA
TAFITH
TAF AMD
KITH 230832Z 2309/2406 20007KT P6SM FEW050
     FM231300 25010KT P6SM BKN040
      TEMPO 2317/2320 4SM TSRA OVC035CB
     FM232000 30008KT P6SM OVC040
     FM240000 32004KT P6SM OVC040=

USA.gov is the U.S. government's official web portal to all federal, state and local government web resources and services.